OIHH  Hamadan  Airport

Hamadan, Iran

Add Bookmark
ICAO OIHH
IATA HDM
Type Airport
Status Operational
Latitude
34° 52' 9" N
34.869202
Longitude
48° 33' 9" E
48.552502
Local (GMT +3.5 ) UTC
Dec 8, 2016 03:26 pm Dec 8, 2016 11:56
Sunrise-Sunset Local UTC
Begin Civil Twilight 06:42 am 03:12
Sunrise 07:10 am 03:40
Sunset 05:05 pm 13:35
End Civil Twilight 05:33 pm 14:03
VFR
VFR
MVFR
MVFR
IFR
IFR
LIFR
LIFR
Unknown
No Data

Current Weather

METAR Observed VFR
OIHH 081100Z 21006KT 9999 FEW040 SCT100 BKN190 07/M13 Q1018 Thu, Dec 8, 2016 @ 11:00 UTC
(56 Minutes ago)
Visual Flight Rules
Wind Visibility Clouds Conditions
210° at 6 knots (11 kph) 10 km or more
  • Few at 4,000 ft AGL
  • Scattered at 10,000 ft AGL
  • Broken at 19,000 ft AGL
  • No significant weather
Temperatures Readings Precipitation
Current Temp
7°C
45°F
Dewpoint
-13°C
9°F
Humidity 23%
Altimeter 30.06" Hg
Sea Level Pressure 1,018 mb
Field Elevation
1,757 m
5,764 ft
None Recorded
-
-

CheckWX.com is intended as a tool to help pilots better visualize weather data. It is not intended as a substitute for an official weather briefing obtained from a Flight Service Station. CheckWX.com does not meet the FAA requirements for an official pre-flight weather briefing. Therefore, it's important that pilots still call and obtain an official FSS pre-flight weather briefing.

© 2007-2016 CheckWX.com
11:56:26 UTC